sensor_id;sensor_type;location;lat;lon;timestamp;P1;durP1;ratioP1;P2;durP2;ratioP2
2175;SDS011;1094;49.902;10.876;2022-07-10T00:00:28;7.30;;;6.60;;
2175;SDS011;1094;49.902;10.876;2022-07-10T00:02:54;8.53;;;5.90;;
2175;SDS011;1094;49.902;10.876;2022-07-10T00:05:20;7.37;;;6.67;;
2175;SDS011;1094;49.902;10.876;2022-07-10T00:07:47;9.83;;;5.60;;
2175;SDS011;1094;49.902;10.876;2022-07-10T00:10:13;7.20;;;6.50;;
2175;SDS011;1094;49.902;10.876;2022-07-10T00:12:39;6.50;;;5.67;;
2175;SDS011;1094;49.902;10.876;2022-07-10T00:15:05;6.37;;;5.80;;
2175;SDS011;1094;49.902;10.876;2022-07-10T00:17:32;7.83;;;6.00;;
2175;SDS011;1094;49.902;10.876;2022-07-10T00:19:58;6.17;;;5.60;;
2175;SDS011;1094;49.902;10.876;2022-07-10T00:22:24;6.20;;;5.70;;
2175;SDS011;1094;49.902;10.876;2022-07-10T00:24:50;5.63;;;5.13;;
2175;SDS011;1094;49.902;10.876;2022-07-10T00:27:16;7.73;;;5.67;;
2175;SDS011;1094;49.902;10.876;2022-07-10T00:29:42;6.00;;;5.47;;
2175;SDS011;1094;49.902;10.876;2022-07-10T00:32:09;7.20;;;5.87;;
2175;SDS011;1094;49.902;10.876;2022-07-10T00:34:35;6.27;;;5.63;;
2175;SDS011;1094;49.902;10.876;2022-07-10T00:37:01;9.10;;;5.50;;
2175;SDS011;1094;49.902;10.876;2022-07-10T00:39:27;5.80;;;5.30;;
2175;SDS011;1094;49.902;10.876;2022-07-10T00:41:53;9.67;;;5.97;;
2175;SDS011;1094;49.902;10.876;2022-07-10T00:44:19;5.40;;;4.90;;
2175;SDS011;1094;49.902;10.876;2022-07-10T00:46:45;6.07;;;5.53;;
2175;SDS011;1094;49.902;10.876;2022-07-10T00:49:11;5.60;;;5.10;;
2175;SDS011;1094;49.902;10.876;2022-07-10T00:51:37;5.57;;;5.00;;
2175;SDS011;1094;49.902;10.876;2022-07-10T00:54:04;7.20;;;5.60;;
2175;SDS011;1094;49.902;10.876;2022-07-10T00:56:31;5.50;;;5.00;;
2175;SDS011;1094;49.902;10.876;2022-07-10T00:58:57;6.50;;;5.77;;
2175;SDS011;1094;49.902;10.876;2022-07-10T01:01:23;5.57;;;4.87;;
2175;SDS011;1094;49.902;10.876;2022-07-10T01:03:50;5.73;;;5.23;;
2175;SDS011;1094;49.902;10.876;2022-07-10T01:06:16;7.37;;;6.07;;
2175;SDS011;1094;49.902;10.876;2022-07-10T01:08:43;6.30;;;5.03;;
2175;SDS011;1094;49.902;10.876;2022-07-10T01:11:09;6.17;;;5.10;;
2175;SDS011;1094;49.902;10.876;2022-07-10T01:13:36;6.40;;;5.80;;
2175;SDS011;1094;49.902;10.876;2022-07-10T01:16:02;9.63;;;5.47;;
2175;SDS011;1094;49.902;10.876;2022-07-10T01:18:28;5.47;;;4.97;;
2175;SDS011;1094;49.902;10.876;2022-07-10T01:20:54;7.17;;;4.73;;
2175;SDS011;1094;49.902;10.876;2022-07-10T01:23:21;6.70;;;5.17;;
2175;SDS011;1094;49.902;10.876;2022-07-10T01:25:47;5.47;;;5.07;;
2175;SDS011;1094;49.902;10.876;2022-07-10T01:28:13;6.00;;;5.53;;
2175;SDS011;1094;49.902;10.876;2022-07-10T01:30:39;11.53;;;5.60;;
2175;SDS011;1094;49.902;10.876;2022-07-10T01:33:06;5.73;;;5.10;;
2175;SDS011;1094;49.902;10.876;2022-07-10T01:35:32;4.97;;;4.50;;
2175;SDS011;1094;49.902;10.876;2022-07-10T01:37:57;9.37;;;4.87;;
2175;SDS011;1094;49.902;10.876;2022-07-10T01:40:23;6.03;;;4.77;;
2175;SDS011;1094;49.902;10.876;2022-07-10T01:42:49;5.97;;;5.00;;
2175;SDS011;1094;49.902;10.876;2022-07-10T01:45:16;5.40;;;4.50;;
2175;SDS011;1094;49.902;10.876;2022-07-10T01:47:43;6.27;;;5.37;;
2175;SDS011;1094;49.902;10.876;2022-07-10T01:50:09;6.57;;;4.57;;
2175;SDS011;1094;49.902;10.876;2022-07-10T01:52:35;8.70;;;4.80;;
2175;SDS011;1094;49.902;10.876;2022-07-10T01:55:01;7.70;;;4.10;;
2175;SDS011;1094;49.902;10.876;2022-07-10T01:57:27;6.83;;;4.40;;
2175;SDS011;1094;49.902;10.876;2022-07-10T01:59:53;5.90;;;3.90;;
2175;SDS011;1094;49.902;10.876;2022-07-10T02:02:19;7.57;;;3.80;;
2175;SDS011;1094;49.902;10.876;2022-07-10T02:04:46;5.07;;;4.13;;
2175;SDS011;1094;49.902;10.876;2022-07-10T02:07:15;4.43;;;3.43;;
2175;SDS011;1094;49.902;10.876;2022-07-10T02:09:42;7.30;;;3.50;;
2175;SDS011;1094;49.902;10.876;2022-07-10T02:12:08;3.57;;;3.27;;
2175;SDS011;1094;49.902;10.876;2022-07-10T02:14:35;9.03;;;3.60;;
2175;SDS011;1094;49.902;10.876;2022-07-10T02:17:01;5.67;;;3.70;;
2175;SDS011;1094;49.902;10.876;2022-07-10T02:19:27;6.23;;;3.33;;
2175;SDS011;1094;49.902;10.876;2022-07-10T02:21:53;4.07;;;3.43;;
2175;SDS011;1094;49.902;10.876;2022-07-10T02:24:19;3.50;;;3.20;;
2175;SDS011;1094;49.902;10.876;2022-07-10T02:26:45;3.60;;;3.30;;
2175;SDS011;1094;49.902;10.876;2022-07-10T02:29:11;3.97;;;3.57;;
2175;SDS011;1094;49.902;10.876;2022-07-10T02:31:37;4.37;;;3.03;;
2175;SDS011;1094;49.902;10.876;2022-07-10T02:34:08;6.00;;;4.03;;
2175;SDS011;1094;49.902;10.876;2022-07-10T02:36:35;6.00;;;3.37;;
2175;SDS011;1094;49.902;10.876;2022-07-10T02:39:01;5.23;;;3.13;;
2175;SDS011;1094;49.902;10.876;2022-07-10T02:41:27;3.90;;;3.13;;
2175;SDS011;1094;49.902;10.876;2022-07-10T02:43:53;4.63;;;3.10;;
2175;SDS011;1094;49.902;10.876;2022-07-10T02:46:19;6.80;;;3.20;;
2175;SDS011;1094;49.902;10.876;2022-07-10T02:48:45;3.77;;;3.43;;
2175;SDS011;1094;49.902;10.876;2022-07-10T02:51:11;9.60;;;2.97;;
2175;SDS011;1094;49.902;10.876;2022-07-10T02:53:37;3.23;;;3.00;;
2175;SDS011;1094;49.902;10.876;2022-07-10T02:56:04;5.50;;;3.30;;
2175;SDS011;1094;49.902;10.876;2022-07-10T02:58:30;9.30;;;3.03;;
2175;SDS011;1094;49.902;10.876;2022-07-10T03:00:57;7.70;;;3.90;;
2175;SDS011;1094;49.902;10.876;2022-07-10T03:03:23;3.23;;;3.03;;
2175;SDS011;1094;49.902;10.876;2022-07-10T03:05:49;8.17;;;3.10;;
2175;SDS011;1094;49.902;10.876;2022-07-10T03:08:15;5.53;;;3.33;;
2175;SDS011;1094;49.902;10.876;2022-07-10T03:10:41;10.17;;;3.87;;
2175;SDS011;1094;49.902;10.876;2022-07-10T03:13:07;8.27;;;3.27;;
2175;SDS011;1094;49.902;10.876;2022-07-10T03:15:33;3.50;;;2.73;;
2175;SDS011;1094;49.902;10.876;2022-07-10T03:17:59;6.40;;;3.70;;
2175;SDS011;1094;49.902;10.876;2022-07-10T03:20:25;3.90;;;2.90;;
2175;SDS011;1094;49.902;10.876;2022-07-10T03:22:51;7.60;;;3.60;;
2175;SDS011;1094;49.902;10.876;2022-07-10T03:25:17;6.90;;;3.70;;
2175;SDS011;1094;49.902;10.876;2022-07-10T03:27:43;4.80;;;2.83;;
2175;SDS011;1094;49.902;10.876;2022-07-10T03:30:09;2.90;;;2.70;;
2175;SDS011;1094;49.902;10.876;2022-07-10T03:32:35;4.30;;;2.87;;
2175;SDS011;1094;49.902;10.876;2022-07-10T03:35:01;4.00;;;2.90;;
2175;SDS011;1094;49.902;10.876;2022-07-10T03:37:27;5.67;;;2.90;;
2175;SDS011;1094;49.902;10.876;2022-07-10T03:39:53;2.50;;;2.30;;
2175;SDS011;1094;49.902;10.876;2022-07-10T03:42:19;4.67;;;2.67;;
2175;SDS011;1094;49.902;10.876;2022-07-10T03:44:45;2.77;;;2.50;;
2175;SDS011;1094;49.902;10.876;2022-07-10T03:47:11;11.00;;;3.47;;
2175;SDS011;1094;49.902;10.876;2022-07-10T03:49:37;4.20;;;2.60;;
2175;SDS011;1094;49.902;10.876;2022-07-10T03:52:07;3.83;;;2.50;;
2175;SDS011;1094;49.902;10.876;2022-07-10T03:54:33;4.17;;;2.70;;
2175;SDS011;1094;49.902;10.876;2022-07-10T03:56:59;7.10;;;2.73;;
2175;SDS011;1094;49.902;10.876;2022-07-10T03:59:44;3.10;;;2.80;;
2175;SDS011;1094;49.902;10.876;2022-07-10T04:02:10;2.90;;;2.60;;
2175;SDS011;1094;49.902;10.876;2022-07-10T04:04:36;5.07;;;2.97;;
2175;SDS011;1094;49.902;10.876;2022-07-10T04:07:02;3.90;;;2.50;;
2175;SDS011;1094;49.902;10.876;2022-07-10T04:09:29;3.20;;;2.90;;
2175;SDS011;1094;49.902;10.876;2022-07-10T04:11:55;6.63;;;2.90;;
2175;SDS011;1094;49.902;10.876;2022-07-10T04:14:21;8.60;;;3.40;;
2175;SDS011;1094;49.902;10.876;2022-07-10T04:16:47;5.43;;;2.97;;
2175;SDS011;1094;49.902;10.876;2022-07-10T04:19:13;3.87;;;2.70;;
2175;SDS011;1094;49.902;10.876;2022-07-10T04:21:39;4.87;;;2.93;;
2175;SDS011;1094;49.902;10.876;2022-07-10T04:24:05;6.23;;;2.70;;
2175;SDS011;1094;49.902;10.876;2022-07-10T04:26:31;4.80;;;2.47;;
2175;SDS011;1094;49.902;10.876;2022-07-10T04:28:57;4.57;;;2.77;;
2175;SDS011;1094;49.902;10.876;2022-07-10T04:31:23;2.40;;;2.20;;
2175;SDS011;1094;49.902;10.876;2022-07-10T04:33:48;4.00;;;2.00;;
2175;SDS011;1094;49.902;10.876;2022-07-10T04:36:14;5.83;;;2.13;;
2175;SDS011;1094;49.902;10.876;2022-07-10T04:38:41;4.30;;;2.23;;
2175;SDS011;1094;49.902;10.876;2022-07-10T04:41:07;3.20;;;2.13;;
2175;SDS011;1094;49.902;10.876;2022-07-10T04:43:33;5.10;;;2.43;;
2175;SDS011;1094;49.902;10.876;2022-07-10T04:45:59;4.33;;;2.23;;
2175;SDS011;1094;49.902;10.876;2022-07-10T04:48:25;3.77;;;1.90;;
2175;SDS011;1094;49.902;10.876;2022-07-10T04:50:50;4.77;;;2.10;;
2175;SDS011;1094;49.902;10.876;2022-07-10T04:53:16;2.03;;;1.80;;
2175;SDS011;1094;49.902;10.876;2022-07-10T04:55:42;2.73;;;1.80;;
2175;SDS011;1094;49.902;10.876;2022-07-10T04:58:08;8.60;;;2.23;;
2175;SDS011;1094;49.902;10.876;2022-07-10T05:00:34;2.77;;;1.73;;
2175;SDS011;1094;49.902;10.876;2022-07-10T05:03:00;3.70;;;1.80;;
2175;SDS011;1094;49.902;10.876;2022-07-10T05:05:26;3.07;;;1.70;;
2175;SDS011;1094;49.902;10.876;2022-07-10T05:07:52;4.80;;;1.60;;
2175;SDS011;1094;49.902;10.876;2022-07-10T05:10:18;3.33;;;1.60;;
2175;SDS011;1094;49.902;10.876;2022-07-10T05:12:44;3.73;;;1.87;;
2175;SDS011;1094;49.902;10.876;2022-07-10T05:15:10;2.70;;;1.77;;
2175;SDS011;1094;49.902;10.876;2022-07-10T05:17:36;3.60;;;1.67;;
2175;SDS011;1094;49.902;10.876;2022-07-10T05:20:02;2.40;;;1.50;;
2175;SDS011;1094;49.902;10.876;2022-07-10T05:22:28;3.73;;;1.70;;
2175;SDS011;1094;49.902;10.876;2022-07-10T05:24:55;4.70;;;1.97;;
2175;SDS011;1094;49.902;10.876;2022-07-10T05:27:21;3.60;;;1.73;;
2175;SDS011;1094;49.902;10.876;2022-07-10T05:29:47;2.40;;;1.50;;
2175;SDS011;1094;49.902;10.876;2022-07-10T05:32:13;3.17;;;1.30;;
2175;SDS011;1094;49.902;10.876;2022-07-10T05:34:40;5.80;;;2.17;;
2175;SDS011;1094;49.902;10.876;2022-07-10T05:37:06;2.80;;;1.80;;
2175;SDS011;1094;49.902;10.876;2022-07-10T05:39:32;1.73;;;1.57;;
2175;SDS011;1094;49.902;10.876;2022-07-10T05:41:58;7.07;;;1.60;;
2175;SDS011;1094;49.902;10.876;2022-07-10T05:44:24;3.23;;;1.70;;
2175;SDS011;1094;49.902;10.876;2022-07-10T05:46:49;5.87;;;1.60;;
2175;SDS011;1094;49.902;10.876;2022-07-10T05:49:16;4.70;;;1.70;;
2175;SDS011;1094;49.902;10.876;2022-07-10T05:51:42;3.90;;;1.40;;
2175;SDS011;1094;49.902;10.876;2022-07-10T05:54:08;3.73;;;1.20;;
2175;SDS011;1094;49.902;10.876;2022-07-10T05:56:34;2.90;;;1.30;;
2175;SDS011;1094;49.902;10.876;2022-07-10T05:59:00;5.10;;;1.73;;
2175;SDS011;1094;49.902;10.876;2022-07-10T06:01:27;3.10;;;1.17;;
2175;SDS011;1094;49.902;10.876;2022-07-10T06:03:53;5.43;;;1.93;;
2175;SDS011;1094;49.902;10.876;2022-07-10T06:06:19;4.70;;;1.47;;
2175;SDS011;1094;49.902;10.876;2022-07-10T06:08:45;2.67;;;1.10;;
2175;SDS011;1094;49.902;10.876;2022-07-10T06:11:11;2.07;;;1.10;;
2175;SDS011;1094;49.902;10.876;2022-07-10T06:13:38;4.60;;;1.07;;
2175;SDS011;1094;49.902;10.876;2022-07-10T06:16:04;1.73;;;1.20;;
2175;SDS011;1094;49.902;10.876;2022-07-10T06:18:33;2.40;;;1.00;;
2175;SDS011;1094;49.902;10.876;2022-07-10T06:20:59;2.23;;;0.90;;
2175;SDS011;1094;49.902;10.876;2022-07-10T06:23:25;1.30;;;1.10;;
2175;SDS011;1094;49.902;10.876;2022-07-10T06:25:51;2.53;;;1.00;;
2175;SDS011;1094;49.902;10.876;2022-07-10T06:28:17;2.30;;;1.20;;
2175;SDS011;1094;49.902;10.876;2022-07-10T06:30:43;3.03;;;1.37;;
2175;SDS011;1094;49.902;10.876;2022-07-10T06:33:11;2.20;;;0.90;;
2175;SDS011;1094;49.902;10.876;2022-07-10T06:35:37;2.73;;;1.03;;
2175;SDS011;1094;49.902;10.876;2022-07-10T06:38:02;4.40;;;1.07;;
2175;SDS011;1094;49.902;10.876;2022-07-10T06:40:29;3.07;;;1.17;;
2175;SDS011;1094;49.902;10.876;2022-07-10T06:42:55;2.53;;;1.03;;
2175;SDS011;1094;49.902;10.876;2022-07-10T06:45:21;2.50;;;1.00;;
2175;SDS011;1094;49.902;10.876;2022-07-10T06:47:47;2.33;;;1.10;;
2175;SDS011;1094;49.902;10.876;2022-07-10T06:50:24;2.23;;;1.00;;
2175;SDS011;1094;49.902;10.876;2022-07-10T06:52:50;2.13;;;0.90;;
2175;SDS011;1094;49.902;10.876;2022-07-10T06:55:17;1.20;;;0.80;;
2175;SDS011;1094;49.902;10.876;2022-07-10T06:57:43;2.37;;;1.10;;
2175;SDS011;1094;49.902;10.876;2022-07-10T07:00:09;1.50;;;0.93;;
2175;SDS011;1094;49.902;10.876;2022-07-10T07:02:36;2.80;;;1.07;;
2175;SDS011;1094;49.902;10.876;2022-07-10T07:05:02;1.43;;;1.00;;
2175;SDS011;1094;49.902;10.876;2022-07-10T07:07:28;3.47;;;1.20;;
2175;SDS011;1094;49.902;10.876;2022-07-10T07:09:54;1.33;;;0.90;;
2175;SDS011;1094;49.902;10.876;2022-07-10T07:12:20;3.10;;;1.13;;
2175;SDS011;1094;49.902;10.876;2022-07-10T07:14:46;1.60;;;1.03;;
2175;SDS011;1094;49.902;10.876;2022-07-10T07:17:12;1.93;;;0.90;;
2175;SDS011;1094;49.902;10.876;2022-07-10T07:19:45;2.40;;;0.90;;
2175;SDS011;1094;49.902;10.876;2022-07-10T07:22:30;1.60;;;1.07;;
2175;SDS011;1094;49.902;10.876;2022-07-10T07:25:15;1.50;;;1.00;;
2175;SDS011;1094;49.902;10.876;2022-07-10T07:27:41;1.90;;;1.10;;
2175;SDS011;1094;49.902;10.876;2022-07-10T07:30:08;2.53;;;1.10;;
2175;SDS011;1094;49.902;10.876;2022-07-10T07:32:35;1.40;;;1.07;;
2175;SDS011;1094;49.902;10.876;2022-07-10T07:35:02;3.00;;;0.90;;
2175;SDS011;1094;49.902;10.876;2022-07-10T07:37:35;2.97;;;1.17;;
2175;SDS011;1094;49.902;10.876;2022-07-10T07:40:02;2.47;;;0.90;;
2175;SDS011;1094;49.902;10.876;2022-07-10T07:42:28;1.23;;;0.90;;
2175;SDS011;1094;49.902;10.876;2022-07-10T07:44:54;1.60;;;0.80;;
2175;SDS011;1094;49.902;10.876;2022-07-10T07:47:20;1.43;;;1.07;;
2175;SDS011;1094;49.902;10.876;2022-07-10T07:49:46;2.40;;;1.20;;
2175;SDS011;1094;49.902;10.876;2022-07-10T07:52:11;1.63;;;0.93;;
2175;SDS011;1094;49.902;10.876;2022-07-10T07:54:39;2.77;;;0.97;;
2175;SDS011;1094;49.902;10.876;2022-07-10T07:57:04;4.30;;;1.23;;
2175;SDS011;1094;49.902;10.876;2022-07-10T07:59:30;1.97;;;1.00;;
2175;SDS011;1094;49.902;10.876;2022-07-10T08:01:56;2.70;;;0.90;;
2175;SDS011;1094;49.902;10.876;2022-07-10T08:04:22;2.13;;;1.20;;
2175;SDS011;1094;49.902;10.876;2022-07-10T08:06:48;2.17;;;1.00;;
2175;SDS011;1094;49.902;10.876;2022-07-10T08:09:17;1.63;;;0.93;;
2175;SDS011;1094;49.902;10.876;2022-07-10T08:11:43;2.13;;;1.17;;
2175;SDS011;1094;49.902;10.876;2022-07-10T08:14:09;2.00;;;1.20;;
2175;SDS011;1094;49.902;10.876;2022-07-10T08:16:35;4.13;;;1.30;;
2175;SDS011;1094;49.902;10.876;2022-07-10T08:19:01;2.28;;;0.93;;
2175;SDS011;1094;49.902;10.876;2022-07-10T08:21:27;2.00;;;1.00;;
2175;SDS011;1094;49.902;10.876;2022-07-10T08:23:53;2.77;;;1.20;;
2175;SDS011;1094;49.902;10.876;2022-07-10T08:26:19;2.67;;;1.17;;
2175;SDS011;1094;49.902;10.876;2022-07-10T08:28:45;2.47;;;1.13;;
2175;SDS011;1094;49.902;10.876;2022-07-10T08:31:11;2.17;;;1.20;;
2175;SDS011;1094;49.902;10.876;2022-07-10T08:33:37;1.93;;;0.90;;
2175;SDS011;1094;49.902;10.876;2022-07-10T08:36:03;1.70;;;1.20;;
2175;SDS011;1094;49.902;10.876;2022-07-10T08:38:29;1.83;;;1.13;;
2175;SDS011;1094;49.902;10.876;2022-07-10T08:40:55;1.33;;;0.97;;
2175;SDS011;1094;49.902;10.876;2022-07-10T08:43:22;3.93;;;1.10;;
2175;SDS011;1094;49.902;10.876;2022-07-10T08:45:48;1.20;;;0.90;;
2175;SDS011;1094;49.902;10.876;2022-07-10T08:48:15;1.20;;;0.90;;
2175;SDS011;1094;49.902;10.876;2022-07-10T08:50:45;1.40;;;0.97;;
2175;SDS011;1094;49.902;10.876;2022-07-10T08:53:13;2.13;;;1.03;;
2175;SDS011;1094;49.902;10.876;2022-07-10T08:55:39;1.80;;;1.03;;
2175;SDS011;1094;49.902;10.876;2022-07-10T08:58:05;3.80;;;0.90;;
2175;SDS011;1094;49.902;10.876;2022-07-10T09:00:33;1.20;;;1.00;;
2175;SDS011;1094;49.902;10.876;2022-07-10T09:02:59;3.73;;;1.20;;
2175;SDS011;1094;49.902;10.876;2022-07-10T09:05:25;1.40;;;0.90;;
2175;SDS011;1094;49.902;10.876;2022-07-10T09:07:52;1.63;;;0.90;;
2175;SDS011;1094;49.902;10.876;2022-07-10T09:10:19;1.67;;;0.80;;
2175;SDS011;1094;49.902;10.876;2022-07-10T09:12:52;2.23;;;1.13;;
2175;SDS011;1094;49.902;10.876;2022-07-10T09:15:19;3.37;;;1.20;;
2175;SDS011;1094;49.902;10.876;2022-07-10T09:17:53;1.17;;;0.83;;
2175;SDS011;1094;49.902;10.876;2022-07-10T09:20:30;1.90;;;1.00;;
2175;SDS011;1094;49.902;10.876;2022-07-10T09:22:57;1.77;;;1.10;;
2175;SDS011;1094;49.902;10.876;2022-07-10T09:25:33;1.57;;;0.90;;
2175;SDS011;1094;49.902;10.876;2022-07-10T09:30:37;2.20;;;0.90;;
2175;SDS011;1094;49.902;10.876;2022-07-10T09:36:07;2.80;;;1.10;;
2175;SDS011;1094;49.902;10.876;2022-07-10T09:43:43;1.40;;;1.23;;
2175;SDS011;1094;49.902;10.876;2022-07-10T09:46:10;2.53;;;1.20;;
2175;SDS011;1094;49.902;10.876;2022-07-10T09:48:36;5.43;;;1.30;;
2175;SDS011;1094;49.902;10.876;2022-07-10T09:51:02;1.20;;;1.10;;
2175;SDS011;1094;49.902;10.876;2022-07-10T09:53:28;3.07;;;1.20;;
2175;SDS011;1094;49.902;10.876;2022-07-10T09:55:54;2.17;;;1.10;;
2175;SDS011;1094;49.902;10.876;2022-07-10T09:58:22;1.47;;;1.00;;
2175;SDS011;1094;49.902;10.876;2022-07-10T10:00:49;1.53;;;1.00;;
2175;SDS011;1094;49.902;10.876;2022-07-10T10:03:16;2.77;;;1.10;;
2175;SDS011;1094;49.902;10.876;2022-07-10T10:05:58;1.03;;;0.90;;
2175;SDS011;1094;49.902;10.876;2022-07-10T10:11:14;3.60;;;1.20;;
2175;SDS011;1094;49.902;10.876;2022-07-10T10:13:42;2.70;;;1.30;;
2175;SDS011;1094;49.902;10.876;2022-07-10T10:16:09;1.97;;;0.93;;
2175;SDS011;1094;49.902;10.876;2022-07-10T10:18:35;2.70;;;1.00;;
2175;SDS011;1094;49.902;10.876;2022-07-10T10:21:22;2.90;;;1.40;;
2175;SDS011;1094;49.902;10.876;2022-07-10T10:23:48;2.77;;;1.30;;
2175;SDS011;1094;49.902;10.876;2022-07-10T10:26:14;1.77;;;0.90;;
2175;SDS011;1094;49.902;10.876;2022-07-10T10:28:40;1.23;;;0.80;;
2175;SDS011;1094;49.902;10.876;2022-07-10T10:31:06;1.67;;;0.90;;
2175;SDS011;1094;49.902;10.876;2022-07-10T10:36:01;1.20;;;1.00;;
2175;SDS011;1094;49.902;10.876;2022-07-10T10:44:33;1.80;;;1.10;;
2175;SDS011;1094;49.902;10.876;2022-07-10T10:49:18;2.47;;;1.13;;
2175;SDS011;1094;49.902;10.876;2022-07-10T10:54:23;1.97;;;0.93;;
2175;SDS011;1094;49.902;10.876;2022-07-10T10:59:44;1.57;;;1.00;;
2175;SDS011;1094;49.902;10.876;2022-07-10T11:02:20;2.23;;;0.90;;
2175;SDS011;1094;49.902;10.876;2022-07-10T11:04:48;3.50;;;1.23;;
2175;SDS011;1094;49.902;10.876;2022-07-10T11:07:50;2.57;;;1.10;;
2175;SDS011;1094;49.902;10.876;2022-07-10T11:15:27;2.30;;;1.57;;
2175;SDS011;1094;49.902;10.876;2022-07-10T11:17:58;1.63;;;1.00;;
2175;SDS011;1094;49.902;10.876;2022-07-10T11:20:24;2.10;;;0.80;;
2175;SDS011;1094;49.902;10.876;2022-07-10T11:28:54;1.40;;;1.00;;
2175;SDS011;1094;49.902;10.876;2022-07-10T11:31:21;5.27;;;1.30;;
2175;SDS011;1094;49.902;10.876;2022-07-10T11:33:48;1.60;;;1.00;;
2175;SDS011;1094;49.902;10.876;2022-07-10T11:36:19;2.57;;;1.10;;
2175;SDS011;1094;49.902;10.876;2022-07-10T11:38:46;4.10;;;1.10;;
2175;SDS011;1094;49.902;10.876;2022-07-10T11:41:14;2.30;;;1.20;;
2175;SDS011;1094;49.902;10.876;2022-07-10T11:43:55;1.30;;;0.90;;
2175;SDS011;1094;49.902;10.876;2022-07-10T11:46:23;3.17;;;1.00;;
2175;SDS011;1094;49.902;10.876;2022-07-10T11:48:50;1.60;;;0.93;;
2175;SDS011;1094;49.902;10.876;2022-07-10T11:51:21;1.87;;;1.10;;
2175;SDS011;1094;49.902;10.876;2022-07-10T11:53:54;2.23;;;1.20;;
2175;SDS011;1094;49.902;10.876;2022-07-10T11:56:20;1.20;;;0.90;;
2175;SDS011;1094;49.902;10.876;2022-07-10T11:59:05;1.30;;;1.20;;
2175;SDS011;1094;49.902;10.876;2022-07-10T12:01:32;3.03;;;1.10;;
2175;SDS011;1094;49.902;10.876;2022-07-10T12:03:59;2.50;;;1.80;;
2175;SDS011;1094;49.902;10.876;2022-07-10T12:06:26;5.50;;;1.33;;
2175;SDS011;1094;49.902;10.876;2022-07-10T12:08:52;1.40;;;1.10;;
2175;SDS011;1094;49.902;10.876;2022-07-10T12:11:19;2.33;;;1.10;;
2175;SDS011;1094;49.902;10.876;2022-07-10T12:13:46;1.63;;;1.10;;
2175;SDS011;1094;49.902;10.876;2022-07-10T12:16:12;1.33;;;0.97;;
2175;SDS011;1094;49.902;10.876;2022-07-10T12:18:39;1.20;;;0.93;;
2175;SDS011;1094;49.902;10.876;2022-07-10T12:21:06;2.27;;;1.17;;
2175;SDS011;1094;49.902;10.876;2022-07-10T12:23:33;1.67;;;1.10;;
2175;SDS011;1094;49.902;10.876;2022-07-10T12:26:07;1.70;;;1.00;;
2175;SDS011;1094;49.902;10.876;2022-07-10T12:28:47;1.47;;;0.90;;
2175;SDS011;1094;49.902;10.876;2022-07-10T12:31:20;2.93;;;1.17;;
2175;SDS011;1094;49.902;10.876;2022-07-10T12:33:50;1.37;;;1.00;;
2175;SDS011;1094;49.902;10.876;2022-07-10T12:36:17;4.80;;;1.20;;
2175;SDS011;1094;49.902;10.876;2022-07-10T12:38:43;2.00;;;1.10;;
2175;SDS011;1094;49.902;10.876;2022-07-10T12:41:18;2.90;;;1.30;;
2175;SDS011;1094;49.902;10.876;2022-07-10T12:43:48;2.90;;;1.27;;
2175;SDS011;1094;49.902;10.876;2022-07-10T12:46:18;3.60;;;1.10;;
2175;SDS011;1094;49.902;10.876;2022-07-10T12:49:00;4.00;;;1.23;;
2175;SDS011;1094;49.902;10.876;2022-07-10T12:51:28;2.83;;;1.50;;
2175;SDS011;1094;49.902;10.876;2022-07-10T12:53:54;3.77;;;1.40;;
2175;SDS011;1094;49.902;10.876;2022-07-10T12:56:34;2.10;;;1.10;;
2175;SDS011;1094;49.902;10.876;2022-07-10T12:59:00;3.10;;;1.10;;
2175;SDS011;1094;49.902;10.876;2022-07-10T13:01:27;2.30;;;1.07;;
2175;SDS011;1094;49.902;10.876;2022-07-10T13:03:57;2.13;;;1.13;;
2175;SDS011;1094;49.902;10.876;2022-07-10T13:06:27;3.83;;;1.87;;
2175;SDS011;1094;49.902;10.876;2022-07-10T13:08:53;1.83;;;1.10;;
2175;SDS011;1094;49.902;10.876;2022-07-10T13:11:19;2.17;;;1.37;;
2175;SDS011;1094;49.902;10.876;2022-07-10T13:13:46;3.57;;;1.30;;
2175;SDS011;1094;49.902;10.876;2022-07-10T13:16:12;1.87;;;1.37;;
2175;SDS011;1094;49.902;10.876;2022-07-10T13:18:38;1.40;;;1.00;;
2175;SDS011;1094;49.902;10.876;2022-07-10T13:21:08;1.80;;;1.23;;
2175;SDS011;1094;49.902;10.876;2022-07-10T13:23:35;4.40;;;1.77;;
2175;SDS011;1094;49.902;10.876;2022-07-10T13:26:01;1.30;;;1.00;;
2175;SDS011;1094;49.902;10.876;2022-07-10T13:28:28;2.10;;;1.17;;
2175;SDS011;1094;49.902;10.876;2022-07-10T13:30:54;3.37;;;1.30;;
2175;SDS011;1094;49.902;10.876;2022-07-10T13:33:20;3.57;;;1.20;;
2175;SDS011;1094;49.902;10.876;2022-07-10T13:35:48;2.17;;;1.00;;
2175;SDS011;1094;49.902;10.876;2022-07-10T13:38:14;2.70;;;1.20;;
2175;SDS011;1094;49.902;10.876;2022-07-10T13:40:43;1.20;;;0.90;;
2175;SDS011;1094;49.902;10.876;2022-07-10T13:43:09;2.23;;;1.10;;
2175;SDS011;1094;49.902;10.876;2022-07-10T13:45:37;1.80;;;1.20;;
2175;SDS011;1094;49.902;10.876;2022-07-10T13:48:08;1.70;;;1.20;;
2175;SDS011;1094;49.902;10.876;2022-07-10T13:50:34;3.43;;;1.30;;
2175;SDS011;1094;49.902;10.876;2022-07-10T13:53:00;1.60;;;1.20;;
2175;SDS011;1094;49.902;10.876;2022-07-10T13:55:26;1.47;;;1.10;;
2175;SDS011;1094;49.902;10.876;2022-07-10T13:57:52;3.60;;;1.33;;
2175;SDS011;1094;49.902;10.876;2022-07-10T14:00:18;3.30;;;1.20;;
2175;SDS011;1094;49.902;10.876;2022-07-10T14:02:45;1.30;;;0.93;;
2175;SDS011;1094;49.902;10.876;2022-07-10T14:05:10;11.00;;;2.57;;
2175;SDS011;1094;49.902;10.876;2022-07-10T14:07:36;2.00;;;1.40;;
2175;SDS011;1094;49.902;10.876;2022-07-10T14:10:03;3.40;;;1.10;;
2175;SDS011;1094;49.902;10.876;2022-07-10T14:12:29;2.80;;;1.50;;
2175;SDS011;1094;49.902;10.876;2022-07-10T14:14:55;2.43;;;1.10;;
2175;SDS011;1094;49.902;10.876;2022-07-10T14:17:22;4.00;;;1.20;;
2175;SDS011;1094;49.902;10.876;2022-07-10T14:19:49;9.50;;;1.60;;
2175;SDS011;1094;49.902;10.876;2022-07-10T14:22:15;2.03;;;0.90;;
2175;SDS011;1094;49.902;10.876;2022-07-10T14:24:41;1.20;;;0.80;;
2175;SDS011;1094;49.902;10.876;2022-07-10T14:27:07;1.70;;;1.33;;
2175;SDS011;1094;49.902;10.876;2022-07-10T14:29:33;3.70;;;1.30;;
2175;SDS011;1094;49.902;10.876;2022-07-10T14:31:59;2.30;;;1.23;;
2175;SDS011;1094;49.902;10.876;2022-07-10T14:34:25;1.40;;;1.20;;
2175;SDS011;1094;49.902;10.876;2022-07-10T14:36:53;3.60;;;1.33;;
2175;SDS011;1094;49.902;10.876;2022-07-10T14:39:19;2.17;;;1.10;;
2175;SDS011;1094;49.902;10.876;2022-07-10T14:41:45;1.80;;;1.40;;
2175;SDS011;1094;49.902;10.876;2022-07-10T14:44:11;1.80;;;1.10;;
2175;SDS011;1094;49.902;10.876;2022-07-10T14:46:37;1.87;;;1.00;;
2175;SDS011;1094;49.902;10.876;2022-07-10T14:49:03;2.20;;;1.17;;
2175;SDS011;1094;49.902;10.876;2022-07-10T14:51:29;2.30;;;1.10;;
2175;SDS011;1094;49.902;10.876;2022-07-10T14:53:56;2.70;;;1.37;;
2175;SDS011;1094;49.902;10.876;2022-07-10T14:56:22;2.03;;;1.30;;
2175;SDS011;1094;49.902;10.876;2022-07-10T14:58:48;3.27;;;1.20;;
2175;SDS011;1094;49.902;10.876;2022-07-10T15:01:15;1.30;;;1.10;;
2175;SDS011;1094;49.902;10.876;2022-07-10T15:03:41;2.83;;;1.23;;
2175;SDS011;1094;49.902;10.876;2022-07-10T15:06:07;1.57;;;1.47;;
2175;SDS011;1094;49.902;10.876;2022-07-10T15:08:33;1.70;;;1.47;;
2175;SDS011;1094;49.902;10.876;2022-07-10T15:10:59;1.30;;;1.20;;
2175;SDS011;1094;49.902;10.876;2022-07-10T15:13:26;2.00;;;1.17;;
2175;SDS011;1094;49.902;10.876;2022-07-10T15:15:52;1.57;;;1.10;;
2175;SDS011;1094;49.902;10.876;2022-07-10T15:18:18;1.90;;;1.10;;
2175;SDS011;1094;49.902;10.876;2022-07-10T15:20:44;2.50;;;1.30;;
2175;SDS011;1094;49.902;10.876;2022-07-10T15:23:10;1.30;;;1.20;;
2175;SDS011;1094;49.902;10.876;2022-07-10T15:25:37;1.70;;;1.10;;
2175;SDS011;1094;49.902;10.876;2022-07-10T15:28:04;1.87;;;1.07;;
2175;SDS011;1094;49.902;10.876;2022-07-10T15:30:32;3.33;;;1.40;;
2175;SDS011;1094;49.902;10.876;2022-07-10T15:32:58;1.60;;;1.20;;
2175;SDS011;1094;49.902;10.876;2022-07-10T15:35:24;2.80;;;1.37;;
2175;SDS011;1094;49.902;10.876;2022-07-10T15:37:50;3.03;;;1.20;;
2175;SDS011;1094;49.902;10.876;2022-07-10T15:40:16;1.17;;;1.07;;